ADDS METAR Data INFO
IDs: Format: Raw Decoded Include TAF

Data at: 0401 UTC 23 Sep 2017

KBMQ 221953Z AUTO 15007G15KT 110V180 10SM FEW075 32/20 A2995 RMK AO2 SLP122 T03220200
KBMQ 221853Z AUTO 15008G17KT 10SM SCT039 BKN050 BKN070 32/21 A2997 RMK AO2 SLP129 T03170206
KBMQ 221753Z AUTO 16006G18KT 10SM BKN035 BKN045 30/21 A2999 RMK AO2 SLP135 T03000206 10300 20239 58008
KBMQ 221653Z AUTO VRB06KT 10SM SCT030 SCT035 BKN047 29/21 A3000 RMK AO2 SLP140 T02890211
KBMQ 221553Z AUTO 16007KT 120V190 10SM FEW019 28/22 A3001 RMK AO2 SLP144 T02830222
KBMQ 221543Z AUTO 16006KT 10SM FEW019 SCT026 SCT045 28/22 A3002 RMK AO2 T02780222
KBMQ 221453Z AUTO 18010G16KT 10SM BKN015 BKN021 26/22 A3001 RMK AO2 SLP144 T02610217 53010
KBMQ 221404Z AUTO 17008KT 10SM BKN011 26/22 A3000 RMK AO2 T02560222 $
KBMQ 221353Z AUTO 15008KT 10SM BKN009 BKN018 25/22 A3000 RMK AO2 SLP141 T02500222 $
KBMQ 221253Z AUTO 15005KT 8SM BKN011 BKN016 24/22 A2999 RMK AO2 CIG 008V012 SLP137 T02390222
KBMQ 221217Z AUTO 15004KT 9SM OVC012 24/22 A2999 RMK AO2 T02390222
KBMQ 221204Z AUTO 17003KT 9SM SCT008 BKN015 24/22 A2998 RMK AO2 T02390222
KBMQ 221153Z AUTO 17007KT 10SM BKN008 OVC015 24/22 A2998 RMK AO2 CIG 007V012 SLP131 T02390222 10244 20233 53003
KBMQ 221118Z AUTO 16004KT 9SM BKN008 24/22 A2997 RMK AO2 CIG 007V013 T02390222
KBMQ 221103Z AUTO 17005KT 10SM SCT010 SCT018 24/22 A2997 RMK AO2 T02390222
KBMQ 221053Z AUTO VRB06KT 9SM FEW008 BKN012 24/22 A2997 RMK AO2 SLP128 T02390222
KBMQ 221048Z AUTO 17005KT 10SM SCT008 BKN012 24/22 A2997 RMK AO2
KBMQ 221021Z AUTO 16004KT 10SM BKN009 BKN015 24/22 A2997 RMK AO2 T02390222
KBMQ 220953Z AUTO 17006KT 10SM BKN010 BKN018 BKN024 24/22 A2997 RMK AO2 CIG 008V013 SLP128 T02390222
KBMQ 220853Z AUTO 17006KT 10SM BKN011 OVC019 24/22 A2998 RMK AO2 SLP131 T02390222 58003
KBMQ 220818Z AUTO 16006KT 10SM OVC011 24/22 A2999 RMK AO2 T02390222
KBMQ 220753Z AUTO 18007KT 10SM OVC009 24/22 A2998 RMK AO2 CIG 008V014 SLP133 T02390217
KBMQ 220653Z AUTO 16006KT 10SM OVC008 23/21 A2998 RMK AO2 SLP133 T02330211
KBMQ 220649Z AUTO 16007KT 10SM OVC008 23/21 A2998 RMK AO2
KBMQ 220629Z AUTO 16006KT 10SM BKN010 BKN015 BKN021 23/21 A2999 RMK AO2 T02330206
KBMQ 220609Z AUTO 15009KT 10SM BKN017 23/20 A2998 RMK AO2 T02330200
KBMQ 220553Z AUTO 17008KT 10SM SCT016 24/20 A2998 RMK AO2 SLP131 T02390200 10322 20239 403440239 51007
KBMQ 220453Z AUTO 15005KT 10SM CLR 24/21 A2997 RMK AO2 SLP129 T02440206 TSNO
KBMQ 220353Z AUTO 15005KT 10SM CLR 25/21 A2996 RMK AO2 SLP128 T02500206
KBMQ 220253Z AUTO 16005KT 10SM CLR 26/21 A2996 RMK AO2 SLP124 T02610206 51018
KBMQ 220153Z AUTO 15006KT 10SM CLR 27/21 A2995 RMK AO2 SLP124 T02670206
KBMQ 220053Z AUTO 14007KT 10SM CLR 28/21 A2993 RMK AO2 SLP115 T02780211
KBMQ 212353Z AUTO 15010G17KT 10SM CLR 32/19 A2990 RMK AO2 SLP104 T03220189 10344 20317 55002
KBMQ 212253Z AUTO 14009G15KT 10SM CLR 33/19 A2990 RMK AO2 SLP103 T03330189
KBMQ 212153Z AUTO 14008KT 120V180 10SM CLR 34/19 A2989 RMK AO2 SLP102 T03390194
KBMQ 212053Z AUTO 13009KT 10SM BKN055 33/19 A2991 RMK AO2 SLP107 T03330194 56025
KBMQ 211853Z AUTO 18008G17KT 10SM BKN050 33/20 A2996 RMK AO2 SLP123 T03330200
KBMQ 211753Z AUTO 16009G15KT 10SM FEW041 32/21 A2998 RMK AO2 SLP132 T03220206 10322 20250 58007
KBMQ 211653Z AUTO 18012G20KT 10SM SCT035 30/21 A3000 RMK AO2 SLP139 T03000211